sensor_id;sensor_type;location;lat;lon;timestamp;temperature;humidity
580;DHT22;276;48.392;9.950;2023-07-29T00:02:07;19.00;99.90
580;DHT22;276;48.392;9.950;2023-07-29T00:04:37;19.00;99.90
580;DHT22;276;48.392;9.950;2023-07-29T00:07:03;19.00;99.90
580;DHT22;276;48.392;9.950;2023-07-29T00:09:29;19.00;99.90
580;DHT22;276;48.392;9.950;2023-07-29T00:11:54;19.00;99.90
580;DHT22;276;48.392;9.950;2023-07-29T00:14:22;19.00;99.90
580;DHT22;276;48.392;9.950;2023-07-29T00:16:50;19.00;99.90
580;DHT22;276;48.392;9.950;2023-07-29T00:19:18;18.90;99.90
580;DHT22;276;48.392;9.950;2023-07-29T00:21:45;18.90;99.90
580;DHT22;276;48.392;9.950;2023-07-29T00:24:13;18.90;99.90
580;DHT22;276;48.392;9.950;2023-07-29T00:26:39;18.90;99.90
580;DHT22;276;48.392;9.950;2023-07-29T00:29:06;18.90;99.90
580;DHT22;276;48.392;9.950;2023-07-29T00:31:32;18.90;99.90
580;DHT22;276;48.392;9.950;2023-07-29T00:34:04;18.90;99.90
580;DHT22;276;48.392;9.950;2023-07-29T00:36:30;18.90;99.90
580;DHT22;276;48.392;9.950;2023-07-29T00:38:58;18.80;99.90
580;DHT22;276;48.392;9.950;2023-07-29T00:41:25;18.80;99.90
580;DHT22;276;48.392;9.950;2023-07-29T00:43:51;18.80;99.90
580;DHT22;276;48.392;9.950;2023-07-29T00:46:22;18.80;99.90
580;DHT22;276;48.392;9.950;2023-07-29T00:48:48;18.80;99.90
580;DHT22;276;48.392;9.950;2023-07-29T00:51:16;18.80;99.90
580;DHT22;276;48.392;9.950;2023-07-29T00:53:46;18.80;99.90
580;DHT22;276;48.392;9.950;2023-07-29T00:56:14;18.80;99.90
580;DHT22;276;48.392;9.950;2023-07-29T00:58:40;18.80;99.90
580;DHT22;276;48.392;9.950;2023-07-29T01:01:11;18.80;99.90
580;DHT22;276;48.392;9.950;2023-07-29T01:03:39;18.70;99.90
580;DHT22;276;48.392;9.950;2023-07-29T01:06:15;18.70;99.90
580;DHT22;276;48.392;9.950;2023-07-29T01:08:55;18.70;99.90
580;DHT22;276;48.392;9.950;2023-07-29T01:11:48;18.70;99.90
580;DHT22;276;48.392;9.950;2023-07-29T01:14:34;18.70;99.90
580;DHT22;276;48.392;9.950;2023-07-29T01:17:07;18.70;99.90
580;DHT22;276;48.392;9.950;2023-07-29T01:22:36;18.60;99.90
580;DHT22;276;48.392;9.950;2023-07-29T01:25:03;18.60;99.90
580;DHT22;276;48.392;9.950;2023-07-29T01:27:29;18.60;99.90
580;DHT22;276;48.392;9.950;2023-07-29T01:29:55;18.60;99.90
580;DHT22;276;48.392;9.950;2023-07-29T01:32:35;18.60;99.90
580;DHT22;276;48.392;9.950;2023-07-29T01:35:19;18.60;99.90
580;DHT22;276;48.392;9.950;2023-07-29T01:37:52;18.60;99.90
580;DHT22;276;48.392;9.950;2023-07-29T01:40:22;18.60;99.90
580;DHT22;276;48.392;9.950;2023-07-29T01:42:53;18.60;99.90
580;DHT22;276;48.392;9.950;2023-07-29T01:45:24;18.60;99.90
580;DHT22;276;48.392;9.950;2023-07-29T01:47:53;18.60;99.90
580;DHT22;276;48.392;9.950;2023-07-29T01:50:23;18.60;99.90
580;DHT22;276;48.392;9.950;2023-07-29T01:52:51;18.60;99.90
580;DHT22;276;48.392;9.950;2023-07-29T01:55:19;18.60;99.90
580;DHT22;276;48.392;9.950;2023-07-29T01:57:47;18.60;99.90
580;DHT22;276;48.392;9.950;2023-07-29T02:00:13;18.60;99.90
580;DHT22;276;48.392;9.950;2023-07-29T02:02:38;18.60;99.90
580;DHT22;276;48.392;9.950;2023-07-29T02:05:06;18.60;99.90
580;DHT22;276;48.392;9.950;2023-07-29T02:07:36;18.60;99.90
580;DHT22;276;48.392;9.950;2023-07-29T02:10:02;18.60;99.90
580;DHT22;276;48.392;9.950;2023-07-29T02:12:30;18.60;99.90
580;DHT22;276;48.392;9.950;2023-07-29T02:14:58;18.60;99.90
580;DHT22;276;48.392;9.950;2023-07-29T02:17:24;18.60;99.90
580;DHT22;276;48.392;9.950;2023-07-29T02:19:49;18.60;99.90
580;DHT22;276;48.392;9.950;2023-07-29T02:22:16;18.60;99.90
580;DHT22;276;48.392;9.950;2023-07-29T02:24:45;18.60;99.90
580;DHT22;276;48.392;9.950;2023-07-29T02:27:15;18.60;99.90
580;DHT22;276;48.392;9.950;2023-07-29T02:29:41;18.60;99.90
580;DHT22;276;48.392;9.950;2023-07-29T02:32:06;18.60;99.90
580;DHT22;276;48.392;9.950;2023-07-29T02:34:32;18.70;99.90
580;DHT22;276;48.392;9.950;2023-07-29T02:36:58;18.70;99.90
580;DHT22;276;48.392;9.950;2023-07-29T02:39:23;18.60;99.90
580;DHT22;276;48.392;9.950;2023-07-29T02:41:51;18.60;99.90
580;DHT22;276;48.392;9.950;2023-07-29T02:44:21;18.60;99.90
580;DHT22;276;48.392;9.950;2023-07-29T02:46:49;18.60;99.90
580;DHT22;276;48.392;9.950;2023-07-29T02:49:15;18.50;99.90
580;DHT22;276;48.392;9.950;2023-07-29T02:51:40;18.50;99.90
580;DHT22;276;48.392;9.950;2023-07-29T02:54:08;18.50;99.90
580;DHT22;276;48.392;9.950;2023-07-29T02:56:34;18.50;99.90
580;DHT22;276;48.392;9.950;2023-07-29T02:58:59;18.50;99.90
580;DHT22;276;48.392;9.950;2023-07-29T03:01:26;18.50;99.90
580;DHT22;276;48.392;9.950;2023-07-29T03:03:52;18.50;99.90
580;DHT22;276;48.392;9.950;2023-07-29T03:06:20;18.50;99.90
580;DHT22;276;48.392;9.950;2023-07-29T03:08:48;18.50;99.90
580;DHT22;276;48.392;9.950;2023-07-29T03:11:14;18.50;99.90
580;DHT22;276;48.392;9.950;2023-07-29T03:13:41;18.50;99.90
580;DHT22;276;48.392;9.950;2023-07-29T03:16:10;18.40;99.90
580;DHT22;276;48.392;9.950;2023-07-29T03:18:37;18.40;99.90
580;DHT22;276;48.392;9.950;2023-07-29T03:21:05;18.40;99.90
580;DHT22;276;48.392;9.950;2023-07-29T03:23:37;18.40;99.90
580;DHT22;276;48.392;9.950;2023-07-29T03:26:03;18.40;99.90
580;DHT22;276;48.392;9.950;2023-07-29T03:28:37;18.40;99.90
580;DHT22;276;48.392;9.950;2023-07-29T03:31:03;18.40;99.90
580;DHT22;276;48.392;9.950;2023-07-29T03:33:31;18.40;99.90
580;DHT22;276;48.392;9.950;2023-07-29T03:36:01;18.50;99.90
580;DHT22;276;48.392;9.950;2023-07-29T03:38:27;18.50;99.90
580;DHT22;276;48.392;9.950;2023-07-29T03:40:55;18.50;99.90
580;DHT22;276;48.392;9.950;2023-07-29T03:43:23;18.50;99.90
580;DHT22;276;48.392;9.950;2023-07-29T03:45:51;18.50;99.90
580;DHT22;276;48.392;9.950;2023-07-29T03:48:16;18.50;99.90
580;DHT22;276;48.392;9.950;2023-07-29T03:50:42;18.50;99.90
580;DHT22;276;48.392;9.950;2023-07-29T03:53:08;18.50;99.90
580;DHT22;276;48.392;9.950;2023-07-29T03:55:35;18.50;99.90
580;DHT22;276;48.392;9.950;2023-07-29T03:58:05;18.50;99.90
580;DHT22;276;48.392;9.950;2023-07-29T04:00:33;18.50;99.90
580;DHT22;276;48.392;9.950;2023-07-29T04:02:59;18.50;99.90
580;DHT22;276;48.392;9.950;2023-07-29T04:05:27;18.50;99.90
580;DHT22;276;48.392;9.950;2023-07-29T04:07:53;18.50;99.90
580;DHT22;276;48.392;9.950;2023-07-29T04:10:21;18.50;99.90
580;DHT22;276;48.392;9.950;2023-07-29T04:12:47;18.50;99.90
580;DHT22;276;48.392;9.950;2023-07-29T04:15:13;18.50;99.90
580;DHT22;276;48.392;9.950;2023-07-29T04:17:40;18.50;99.90
580;DHT22;276;48.392;9.950;2023-07-29T04:20:10;18.50;99.90
580;DHT22;276;48.392;9.950;2023-07-29T04:22:36;18.50;99.90
580;DHT22;276;48.392;9.950;2023-07-29T04:25:01;18.50;99.90
580;DHT22;276;48.392;9.950;2023-07-29T04:27:27;18.50;99.90
580;DHT22;276;48.392;9.950;2023-07-29T04:29:52;18.50;99.90
580;DHT22;276;48.392;9.950;2023-07-29T04:32:18;18.50;99.90
580;DHT22;276;48.392;9.950;2023-07-29T04:34:49;18.50;99.90
580;DHT22;276;48.392;9.950;2023-07-29T04:37:14;18.50;99.90
580;DHT22;276;48.392;9.950;2023-07-29T04:39:40;18.50;99.90
580;DHT22;276;48.392;9.950;2023-07-29T04:42:05;18.60;99.90
580;DHT22;276;48.392;9.950;2023-07-29T04:44:31;18.60;99.90
580;DHT22;276;48.392;9.950;2023-07-29T04:46:57;18.60;99.90
580;DHT22;276;48.392;9.950;2023-07-29T04:49:22;18.60;99.90
580;DHT22;276;48.392;9.950;2023-07-29T04:51:52;18.60;99.90
580;DHT22;276;48.392;9.950;2023-07-29T04:54:20;18.70;99.90
580;DHT22;276;48.392;9.950;2023-07-29T04:56:46;18.70;99.90
580;DHT22;276;48.392;9.950;2023-07-29T04:59:12;18.70;99.90
580;DHT22;276;48.392;9.950;2023-07-29T05:01:42;18.70;99.90
580;DHT22;276;48.392;9.950;2023-07-29T05:04:08;18.70;99.90
580;DHT22;276;48.392;9.950;2023-07-29T05:06:37;18.70;99.90
580;DHT22;276;48.392;9.950;2023-07-29T05:09:16;18.70;99.90
580;DHT22;276;48.392;9.950;2023-07-29T05:11:44;18.70;99.90
580;DHT22;276;48.392;9.950;2023-07-29T05:14:16;18.80;99.90
580;DHT22;276;48.392;9.950;2023-07-29T05:16:42;18.80;99.90
580;DHT22;276;48.392;9.950;2023-07-29T05:19:10;18.80;99.90
580;DHT22;276;48.392;9.950;2023-07-29T05:21:38;18.80;99.90
580;DHT22;276;48.392;9.950;2023-07-29T05:24:06;18.90;99.90
580;DHT22;276;48.392;9.950;2023-07-29T05:26:32;19.00;99.90
580;DHT22;276;48.392;9.950;2023-07-29T05:28:58;18.90;99.90
580;DHT22;276;48.392;9.950;2023-07-29T05:31:28;19.00;99.90
580;DHT22;276;48.392;9.950;2023-07-29T05:33:54;19.00;99.90
580;DHT22;276;48.392;9.950;2023-07-29T05:36:24;18.90;99.90
580;DHT22;276;48.392;9.950;2023-07-29T05:38:51;18.90;99.90
580;DHT22;276;48.392;9.950;2023-07-29T05:41:22;18.90;99.90
580;DHT22;276;48.392;9.950;2023-07-29T05:43:47;18.80;99.90
580;DHT22;276;48.392;9.950;2023-07-29T05:46:13;18.80;99.90
580;DHT22;276;48.392;9.950;2023-07-29T05:48:38;18.80;99.90
580;DHT22;276;48.392;9.950;2023-07-29T05:51:04;18.70;99.90
580;DHT22;276;48.392;9.950;2023-07-29T05:53:32;18.80;99.90
580;DHT22;276;48.392;9.950;2023-07-29T05:56:00;18.80;99.90
580;DHT22;276;48.392;9.950;2023-07-29T05:58:26;18.80;99.90
580;DHT22;276;48.392;9.950;2023-07-29T06:00:56;18.80;99.90
580;DHT22;276;48.392;9.950;2023-07-29T06:03:22;18.80;99.90
580;DHT22;276;48.392;9.950;2023-07-29T06:05:50;18.70;99.90
580;DHT22;276;48.392;9.950;2023-07-29T06:08:18;18.70;99.90
580;DHT22;276;48.392;9.950;2023-07-29T06:10:48;18.70;99.90
580;DHT22;276;48.392;9.950;2023-07-29T06:13:16;18.70;99.90
580;DHT22;276;48.392;9.950;2023-07-29T06:15:42;18.70;99.90
580;DHT22;276;48.392;9.950;2023-07-29T06:18:12;18.70;99.90
580;DHT22;276;48.392;9.950;2023-07-29T06:20:38;18.70;99.90
580;DHT22;276;48.392;9.950;2023-07-29T06:23:08;18.70;99.90
580;DHT22;276;48.392;9.950;2023-07-29T06:25:36;18.70;99.90
580;DHT22;276;48.392;9.950;2023-07-29T06:28:02;18.80;99.90
580;DHT22;276;48.392;9.950;2023-07-29T06:30:29;18.80;99.90
580;DHT22;276;48.392;9.950;2023-07-29T06:32:55;18.90;99.90
580;DHT22;276;48.392;9.950;2023-07-29T06:35:21;19.00;99.90
580;DHT22;276;48.392;9.950;2023-07-29T06:37:46;19.10;99.90
580;DHT22;276;48.392;9.950;2023-07-29T06:40:14;19.20;99.90
580;DHT22;276;48.392;9.950;2023-07-29T06:42:40;19.20;99.90
580;DHT22;276;48.392;9.950;2023-07-29T06:45:08;19.30;99.90
580;DHT22;276;48.392;9.950;2023-07-29T06:47:37;19.40;99.90
580;DHT22;276;48.392;9.950;2023-07-29T06:50:03;19.40;99.90
580;DHT22;276;48.392;9.950;2023-07-29T06:52:29;19.50;99.90
580;DHT22;276;48.392;9.950;2023-07-29T06:54:56;19.50;99.90
580;DHT22;276;48.392;9.950;2023-07-29T06:57:22;19.60;99.90
580;DHT22;276;48.392;9.950;2023-07-29T06:59:50;19.70;99.90
580;DHT22;276;48.392;9.950;2023-07-29T07:02:18;19.60;99.90
580;DHT22;276;48.392;9.950;2023-07-29T07:04:46;19.70;99.90
580;DHT22;276;48.392;9.950;2023-07-29T07:07:15;19.60;99.90
580;DHT22;276;48.392;9.950;2023-07-29T07:09:43;19.70;99.90
580;DHT22;276;48.392;9.950;2023-07-29T07:12:09;19.70;99.90
580;DHT22;276;48.392;9.950;2023-07-29T07:14:36;19.80;99.90
580;DHT22;276;48.392;9.950;2023-07-29T07:17:04;19.90;99.90
580;DHT22;276;48.392;9.950;2023-07-29T07:19:30;20.00;99.90
580;DHT22;276;48.392;9.950;2023-07-29T07:21:58;20.10;99.90
580;DHT22;276;48.392;9.950;2023-07-29T07:24:23;20.20;99.90
580;DHT22;276;48.392;9.950;2023-07-29T07:26:49;20.20;99.90
580;DHT22;276;48.392;9.950;2023-07-29T07:29:17;20.20;99.90
580;DHT22;276;48.392;9.950;2023-07-29T07:31:52;20.40;99.90
580;DHT22;276;48.392;9.950;2023-07-29T07:34:21;20.40;99.90
580;DHT22;276;48.392;9.950;2023-07-29T07:36:52;20.50;99.90
580;DHT22;276;48.392;9.950;2023-07-29T07:39:20;20.40;99.90
580;DHT22;276;48.392;9.950;2023-07-29T07:41:48;20.50;99.90
580;DHT22;276;48.392;9.950;2023-07-29T07:44:16;20.50;99.90
580;DHT22;276;48.392;9.950;2023-07-29T07:46:45;20.50;99.90
580;DHT22;276;48.392;9.950;2023-07-29T07:49:13;20.50;99.90
580;DHT22;276;48.392;9.950;2023-07-29T07:51:43;20.60;99.90
580;DHT22;276;48.392;9.950;2023-07-29T07:54:11;20.60;99.90
580;DHT22;276;48.392;9.950;2023-07-29T07:56:37;20.70;99.90
580;DHT22;276;48.392;9.950;2023-07-29T07:59:03;20.70;99.90
580;DHT22;276;48.392;9.950;2023-07-29T08:01:37;20.80;99.90
580;DHT22;276;48.392;9.950;2023-07-29T08:04:05;20.90;99.90
580;DHT22;276;48.392;9.950;2023-07-29T08:06:31;21.00;99.90
580;DHT22;276;48.392;9.950;2023-07-29T08:09:03;21.10;99.90
580;DHT22;276;48.392;9.950;2023-07-29T08:11:28;21.20;99.90
580;DHT22;276;48.392;9.950;2023-07-29T08:13:54;21.30;99.90
580;DHT22;276;48.392;9.950;2023-07-29T08:16:20;21.20;99.90
580;DHT22;276;48.392;9.950;2023-07-29T08:18:48;21.20;99.90
580;DHT22;276;48.392;9.950;2023-07-29T08:21:16;21.30;99.90
580;DHT22;276;48.392;9.950;2023-07-29T08:23:41;21.30;99.90
580;DHT22;276;48.392;9.950;2023-07-29T08:26:07;21.30;99.90
580;DHT22;276;48.392;9.950;2023-07-29T08:28:37;21.40;99.90
580;DHT22;276;48.392;9.950;2023-07-29T08:31:06;21.50;99.90
580;DHT22;276;48.392;9.950;2023-07-29T08:33:36;21.60;99.90
580;DHT22;276;48.392;9.950;2023-07-29T08:36:04;21.60;99.90
580;DHT22;276;48.392;9.950;2023-07-29T08:38:30;21.50;99.90
580;DHT22;276;48.392;9.950;2023-07-29T08:41:19;21.50;99.90
580;DHT22;276;48.392;9.950;2023-07-29T08:43:52;21.40;99.90
580;DHT22;276;48.392;9.950;2023-07-29T08:46:21;21.30;99.90
580;DHT22;276;48.392;9.950;2023-07-29T08:48:50;21.20;99.90
580;DHT22;276;48.392;9.950;2023-07-29T08:51:17;21.10;99.90
580;DHT22;276;48.392;9.950;2023-07-29T08:53:44;21.00;99.90
580;DHT22;276;48.392;9.950;2023-07-29T08:56:10;20.90;99.90
580;DHT22;276;48.392;9.950;2023-07-29T08:58:36;20.90;99.90
580;DHT22;276;48.392;9.950;2023-07-29T09:01:06;20.80;99.90
580;DHT22;276;48.392;9.950;2023-07-29T09:03:31;20.80;99.90
580;DHT22;276;48.392;9.950;2023-07-29T09:06:04;20.80;99.90
580;DHT22;276;48.392;9.950;2023-07-29T09:08:31;20.80;99.90
580;DHT22;276;48.392;9.950;2023-07-29T09:10:57;20.90;99.90
580;DHT22;276;48.392;9.950;2023-07-29T09:13:23;20.90;99.90
580;DHT22;276;48.392;9.950;2023-07-29T09:15:48;20.90;99.90
580;DHT22;276;48.392;9.950;2023-07-29T09:18:19;20.90;99.90
580;DHT22;276;48.392;9.950;2023-07-29T09:20:48;21.00;99.90
580;DHT22;276;48.392;9.950;2023-07-29T09:23:14;21.00;99.90
580;DHT22;276;48.392;9.950;2023-07-29T09:25:40;21.00;99.90
580;DHT22;276;48.392;9.950;2023-07-29T09:28:24;21.00;99.90
580;DHT22;276;48.392;9.950;2023-07-29T09:30:49;21.00;99.90
580;DHT22;276;48.392;9.950;2023-07-29T09:33:18;21.00;99.90
580;DHT22;276;48.392;9.950;2023-07-29T09:35:44;21.00;99.90
580;DHT22;276;48.392;9.950;2023-07-29T09:38:14;21.10;99.90
580;DHT22;276;48.392;9.950;2023-07-29T09:40:41;21.10;99.90
580;DHT22;276;48.392;9.950;2023-07-29T09:43:09;21.20;99.90
580;DHT22;276;48.392;9.950;2023-07-29T09:45:35;21.30;99.90
580;DHT22;276;48.392;9.950;2023-07-29T09:48:02;21.40;99.90
580;DHT22;276;48.392;9.950;2023-07-29T09:50:34;21.50;99.90
580;DHT22;276;48.392;9.950;2023-07-29T09:53:02;21.50;99.90
580;DHT22;276;48.392;9.950;2023-07-29T09:55:28;21.70;99.90
580;DHT22;276;48.392;9.950;2023-07-29T09:58:01;21.70;99.90
580;DHT22;276;48.392;9.950;2023-07-29T10:00:30;21.90;99.90
580;DHT22;276;48.392;9.950;2023-07-29T10:02:59;22.00;99.90
580;DHT22;276;48.392;9.950;2023-07-29T10:05:28;22.10;99.90
580;DHT22;276;48.392;9.950;2023-07-29T10:07:55;22.30;99.90
580;DHT22;276;48.392;9.950;2023-07-29T10:10:21;22.40;99.90
580;DHT22;276;48.392;9.950;2023-07-29T10:12:47;22.50;99.90
580;DHT22;276;48.392;9.950;2023-07-29T10:15:13;22.60;99.90
580;DHT22;276;48.392;9.950;2023-07-29T10:17:40;22.60;99.90
580;DHT22;276;48.392;9.950;2023-07-29T10:20:07;22.70;99.90
580;DHT22;276;48.392;9.950;2023-07-29T10:22:38;22.80;99.90
580;DHT22;276;48.392;9.950;2023-07-29T10:25:08;23.00;99.90
580;DHT22;276;48.392;9.950;2023-07-29T10:28:07;23.10;99.90
580;DHT22;276;48.392;9.950;2023-07-29T10:30:36;23.30;99.90
580;DHT22;276;48.392;9.950;2023-07-29T10:33:03;23.30;99.90
580;DHT22;276;48.392;9.950;2023-07-29T10:35:33;23.40;99.90
580;DHT22;276;48.392;9.950;2023-07-29T10:38:02;23.40;99.90
580;DHT22;276;48.392;9.950;2023-07-29T10:40:47;23.40;99.90
580;DHT22;276;48.392;9.950;2023-07-29T10:43:37;23.20;99.90
580;DHT22;276;48.392;9.950;2023-07-29T10:46:16;23.10;99.90
580;DHT22;276;48.392;9.950;2023-07-29T10:48:44;23.00;99.90
580;DHT22;276;48.392;9.950;2023-07-29T10:51:24;22.90;99.90
580;DHT22;276;48.392;9.950;2023-07-29T10:54:13;22.80;99.90
580;DHT22;276;48.392;9.950;2023-07-29T10:56:51;22.80;99.90
580;DHT22;276;48.392;9.950;2023-07-29T11:02:01;22.60;99.90
580;DHT22;276;48.392;9.950;2023-07-29T11:04:29;22.60;99.90
580;DHT22;276;48.392;9.950;2023-07-29T11:12:41;22.90;99.90
580;DHT22;276;48.392;9.950;2023-07-29T11:17:41;23.10;99.90
580;DHT22;276;48.392;9.950;2023-07-29T11:20:07;23.10;99.90
580;DHT22;276;48.392;9.950;2023-07-29T11:22:34;23.30;99.90
580;DHT22;276;48.392;9.950;2023-07-29T11:25:00;23.30;99.90
580;DHT22;276;48.392;9.950;2023-07-29T11:27:26;23.50;99.90
580;DHT22;276;48.392;9.950;2023-07-29T11:30:01;23.60;99.90
580;DHT22;276;48.392;9.950;2023-07-29T11:32:31;23.70;99.90
580;DHT22;276;48.392;9.950;2023-07-29T11:35:01;23.70;99.90
580;DHT22;276;48.392;9.950;2023-07-29T11:37:27;23.70;99.90
580;DHT22;276;48.392;9.950;2023-07-29T11:39:53;23.80;99.90
580;DHT22;276;48.392;9.950;2023-07-29T11:42:18;23.90;99.90
580;DHT22;276;48.392;9.950;2023-07-29T11:44:45;24.00;99.90
580;DHT22;276;48.392;9.950;2023-07-29T11:47:11;24.00;99.90
580;DHT22;276;48.392;9.950;2023-07-29T11:49:41;24.00;99.90
580;DHT22;276;48.392;9.950;2023-07-29T11:52:10;24.10;99.90
580;DHT22;276;48.392;9.950;2023-07-29T11:54:39;24.20;99.90
580;DHT22;276;48.392;9.950;2023-07-29T11:57:08;24.30;99.90
580;DHT22;276;48.392;9.950;2023-07-29T11:59:37;24.40;99.90
580;DHT22;276;48.392;9.950;2023-07-29T12:02:10;24.50;99.90
580;DHT22;276;48.392;9.950;2023-07-29T12:04:38;24.60;99.90
580;DHT22;276;48.392;9.950;2023-07-29T12:07:06;24.70;99.90
580;DHT22;276;48.392;9.950;2023-07-29T12:09:33;24.90;99.90
580;DHT22;276;48.392;9.950;2023-07-29T12:12:00;25.10;99.90
580;DHT22;276;48.392;9.950;2023-07-29T12:14:29;25.20;99.90
580;DHT22;276;48.392;9.950;2023-07-29T12:17:04;25.30;99.90
580;DHT22;276;48.392;9.950;2023-07-29T12:19:37;25.30;99.90
580;DHT22;276;48.392;9.950;2023-07-29T12:22:09;25.30;99.90
580;DHT22;276;48.392;9.950;2023-07-29T12:24:39;25.30;99.90
580;DHT22;276;48.392;9.950;2023-07-29T12:27:10;25.40;99.90
580;DHT22;276;48.392;9.950;2023-07-29T12:29:40;25.40;99.90
580;DHT22;276;48.392;9.950;2023-07-29T12:32:09;25.50;99.90
580;DHT22;276;48.392;9.950;2023-07-29T12:34:38;25.50;99.90
580;DHT22;276;48.392;9.950;2023-07-29T12:37:05;25.60;99.90
580;DHT22;276;48.392;9.950;2023-07-29T12:39:35;25.60;99.90
580;DHT22;276;48.392;9.950;2023-07-29T12:42:02;25.70;99.90
580;DHT22;276;48.392;9.950;2023-07-29T12:44:34;25.70;99.90
580;DHT22;276;48.392;9.950;2023-07-29T12:47:06;25.70;99.90
580;DHT22;276;48.392;9.950;2023-07-29T12:49:33;25.70;99.90
580;DHT22;276;48.392;9.950;2023-07-29T12:52:02;25.60;99.90
580;DHT22;276;48.392;9.950;2023-07-29T12:54:28;25.70;99.90
580;DHT22;276;48.392;9.950;2023-07-29T12:56:53;25.70;99.90
580;DHT22;276;48.392;9.950;2023-07-29T12:59:19;25.80;99.90
580;DHT22;276;48.392;9.950;2023-07-29T13:01:47;25.80;99.90
580;DHT22;276;48.392;9.950;2023-07-29T13:04:13;25.80;99.90
580;DHT22;276;48.392;9.950;2023-07-29T13:06:40;25.80;99.90
580;DHT22;276;48.392;9.950;2023-07-29T13:09:06;25.80;99.90
580;DHT22;276;48.392;9.950;2023-07-29T13:11:34;25.80;99.90
580;DHT22;276;48.392;9.950;2023-07-29T13:14:00;25.80;99.90
580;DHT22;276;48.392;9.950;2023-07-29T13:16:26;25.80;99.90
580;DHT22;276;48.392;9.950;2023-07-29T13:18:52;25.80;99.90
580;DHT22;276;48.392;9.950;2023-07-29T13:21:20;25.80;99.90
580;DHT22;276;48.392;9.950;2023-07-29T13:23:45;25.80;99.90
580;DHT22;276;48.392;9.950;2023-07-29T13:26:11;25.80;99.90
580;DHT22;276;48.392;9.950;2023-07-29T13:28:37;25.80;99.90
580;DHT22;276;48.392;9.950;2023-07-29T13:31:04;25.80;99.90
580;DHT22;276;48.392;9.950;2023-07-29T13:33:32;25.80;99.90
580;DHT22;276;48.392;9.950;2023-07-29T13:36:01;25.80;99.90
580;DHT22;276;48.392;9.950;2023-07-29T13:38:32;25.60;99.90
580;DHT22;276;48.392;9.950;2023-07-29T13:40:58;25.60;99.90
580;DHT22;276;48.392;9.950;2023-07-29T13:43:23;25.70;99.90
580;DHT22;276;48.392;9.950;2023-07-29T13:45:49;25.60;99.90
580;DHT22;276;48.392;9.950;2023-07-29T13:48:15;25.60;99.90
580;DHT22;276;48.392;9.950;2023-07-29T13:50:44;25.60;99.90
580;DHT22;276;48.392;9.950;2023-07-29T13:53:09;25.60;99.90
580;DHT22;276;48.392;9.950;2023-07-29T13:55:35;25.60;99.90
580;DHT22;276;48.392;9.950;2023-07-29T13:58:03;25.40;99.90
580;DHT22;276;48.392;9.950;2023-07-29T14:00:29;25.40;99.90
580;DHT22;276;48.392;9.950;2023-07-29T14:02:57;25.40;99.90
580;DHT22;276;48.392;9.950;2023-07-29T14:05:25;25.40;99.90
580;DHT22;276;48.392;9.950;2023-07-29T14:07:53;25.30;99.90
580;DHT22;276;48.392;9.950;2023-07-29T14:10:21;25.30;99.90
580;DHT22;276;48.392;9.950;2023-07-29T14:12:46;25.30;99.90
580;DHT22;276;48.392;9.950;2023-07-29T14:15:12;25.30;99.90
580;DHT22;276;48.392;9.950;2023-07-29T14:17:40;25.30;99.90
580;DHT22;276;48.392;9.950;2023-07-29T14:20:08;25.30;99.90
580;DHT22;276;48.392;9.950;2023-07-29T14:22:37;25.30;99.90
580;DHT22;276;48.392;9.950;2023-07-29T14:25:05;25.30;99.90
580;DHT22;276;48.392;9.950;2023-07-29T14:27:31;25.30;99.90
580;DHT22;276;48.392;9.950;2023-07-29T14:29:56;25.30;99.90
580;DHT22;276;48.392;9.950;2023-07-29T14:32:23;25.30;99.90
580;DHT22;276;48.392;9.950;2023-07-29T14:34:52;25.30;99.90
580;DHT22;276;48.392;9.950;2023-07-29T14:37:17;25.30;99.90
580;DHT22;276;48.392;9.950;2023-07-29T14:39:47;25.30;99.90
580;DHT22;276;48.392;9.950;2023-07-29T14:42:13;25.30;99.90
580;DHT22;276;48.392;9.950;2023-07-29T14:44:40;25.30;99.90
580;DHT22;276;48.392;9.950;2023-07-29T14:47:07;25.20;99.90
580;DHT22;276;48.392;9.950;2023-07-29T14:49:33;25.30;99.90
580;DHT22;276;48.392;9.950;2023-07-29T14:51:59;25.20;99.90
580;DHT22;276;48.392;9.950;2023-07-29T14:54:24;25.20;99.90
580;DHT22;276;48.392;9.950;2023-07-29T14:56:50;25.30;99.90
580;DHT22;276;48.392;9.950;2023-07-29T14:59:15;25.30;99.90
580;DHT22;276;48.392;9.950;2023-07-29T15:01:43;25.30;99.90
580;DHT22;276;48.392;9.950;2023-07-29T15:04:09;25.30;99.90
580;DHT22;276;48.392;9.950;2023-07-29T15:06:37;25.30;99.90
580;DHT22;276;48.392;9.950;2023-07-29T15:09:07;25.20;99.90
580;DHT22;276;48.392;9.950;2023-07-29T15:11:33;25.20;99.90
580;DHT22;276;48.392;9.950;2023-07-29T15:14:01;25.20;99.90
580;DHT22;276;48.392;9.950;2023-07-29T15:16:28;25.20;99.90
580;DHT22;276;48.392;9.950;2023-07-29T15:18:54;25.20;99.90
580;DHT22;276;48.392;9.950;2023-07-29T15:21:19;25.20;99.90
580;DHT22;276;48.392;9.950;2023-07-29T15:23:47;25.20;99.90
580;DHT22;276;48.392;9.950;2023-07-29T15:26:18;25.10;99.90
580;DHT22;276;48.392;9.950;2023-07-29T15:28:43;25.10;99.90
580;DHT22;276;48.392;9.950;2023-07-29T15:31:12;25.00;99.90
580;DHT22;276;48.392;9.950;2023-07-29T15:33:40;24.90;99.90
580;DHT22;276;48.392;9.950;2023-07-29T15:36:08;24.90;99.90
580;DHT22;276;48.392;9.950;2023-07-29T15:38:36;24.80;99.90
580;DHT22;276;48.392;9.950;2023-07-29T15:41:04;24.70;99.90
580;DHT22;276;48.392;9.950;2023-07-29T15:43:29;24.70;99.90
580;DHT22;276;48.392;9.950;2023-07-29T15:45:58;24.50;99.90
580;DHT22;276;48.392;9.950;2023-07-29T15:48:24;24.40;99.90
580;DHT22;276;48.392;9.950;2023-07-29T15:50:49;24.30;99.90
580;DHT22;276;48.392;9.950;2023-07-29T15:53:17;24.10;99.90
580;DHT22;276;48.392;9.950;2023-07-29T15:55:45;24.00;99.90
580;DHT22;276;48.392;9.950;2023-07-29T15:58:11;23.80;99.90
580;DHT22;276;48.392;9.950;2023-07-29T16:00:36;23.50;99.90
580;DHT22;276;48.392;9.950;2023-07-29T16:03:02;23.20;99.90
580;DHT22;276;48.392;9.950;2023-07-29T16:05:28;22.90;99.90
580;DHT22;276;48.392;9.950;2023-07-29T16:07:53;22.70;99.90
580;DHT22;276;48.392;9.950;2023-07-29T16:10:23;22.50;99.90
580;DHT22;276;48.392;9.950;2023-07-29T16:12:48;22.40;99.90
580;DHT22;276;48.392;9.950;2023-07-29T16:15:14;22.30;99.90
580;DHT22;276;48.392;9.950;2023-07-29T16:17:42;22.20;99.90
580;DHT22;276;48.392;9.950;2023-07-29T16:20:08;22.10;99.90
580;DHT22;276;48.392;9.950;2023-07-29T16:22:36;22.00;99.90
580;DHT22;276;48.392;9.950;2023-07-29T16:25:04;21.90;99.90
580;DHT22;276;48.392;9.950;2023-07-29T16:27:30;21.80;99.90
580;DHT22;276;48.392;9.950;2023-07-29T16:29:59;21.60;99.90
580;DHT22;276;48.392;9.950;2023-07-29T16:32:25;21.60;99.90
580;DHT22;276;48.392;9.950;2023-07-29T16:34:53;21.50;99.90
580;DHT22;276;48.392;9.950;2023-07-29T16:37:21;21.50;99.90
580;DHT22;276;48.392;9.950;2023-07-29T16:39:47;21.50;99.90
580;DHT22;276;48.392;9.950;2023-07-29T16:42:13;21.40;99.90
580;DHT22;276;48.392;9.950;2023-07-29T16:44:41;21.40;99.90
580;DHT22;276;48.392;9.950;2023-07-29T16:47:07;21.40;99.90
580;DHT22;276;48.392;9.950;2023-07-29T16:49:36;21.30;99.90
580;DHT22;276;48.392;9.950;2023-07-29T16:52:03;21.30;99.90
580;DHT22;276;48.392;9.950;2023-07-29T16:54:28;21.40;99.90